Time;durP1;ratioP1;P1;durP2;ratioP2;P2;SDS_P1;SDS_P2;PMS_P1;PMS_P2;Temp;Humidity;BMP_temperature;BMP_pressure;BME280_temperature;BME280_humidity;BME280_pressure;Samples;Min_cycle;Max_cycle;Signal;HPM_P1;HPM_P2
2022/09/05 00:01:13;;;;;;;2.40;2.00;;;;;;;17.47;76.91;99020.66;4915468;28;20227;-55
2022/09/05 00:03:48;;;;;;;2.77;2.40;;;;;;;17.46;76.83;99017.19;4918294;29;20258;-54
2022/09/05 00:06:16;;;;;;;3.93;2.23;;;;;;;17.56;76.21;99008.97;4921714;29;20651;-54
2022/09/05 00:09:01;;;;;;;5.63;2.20;;;;;;;17.67;75.35;99000.56;4918548;28;20238;-53
2022/09/05 00:11:36;;;;;;;2.80;2.00;;;;;;;17.68;75.97;99001.38;4916707;28;20303;-52
2022/09/05 00:14:23;;;;;;;7.43;2.10;;;;;;;17.67;75.30;99010.31;4920622;29;20239;-52
2022/09/05 00:17:01;;;;;;;2.93;1.97;;;;;;;17.70;75.42;99010.75;4919793;29;20232;-55
2022/09/05 00:19:42;;;;;;;3.17;2.10;;;;;;;17.76;75.52;99008.34;4919274;28;20695;-54
2022/09/05 00:22:26;;;;;;;2.70;2.10;;;;;;;17.78;75.05;99009.81;4920822;29;20239;-52
2022/09/05 00:25:06;;;;;;;2.30;2.10;;;;;;;17.81;75.11;99000.69;4917898;29;20291;-54
2022/09/05 00:27:44;;;;;;;2.73;1.97;;;;;;;17.81;74.99;98998.88;4919004;28;20236;-54
2022/09/05 00:30:15;;;;;;;2.70;2.30;;;;;;;17.85;74.67;98997.50;4921418;29;20250;-56
2022/09/05 00:32:59;;;;;;;2.70;2.03;;;;;;;17.81;74.86;98995.41;4916898;29;20245;-52
2022/09/05 00:35:43;;;;;;;4.20;1.90;;;;;;;17.83;74.77;98996.03;4917368;28;20626;-53
2022/09/05 00:38:14;;;;;;;2.37;2.17;;;;;;;17.83;75.07;98982.84;4921100;28;20231;-54
2022/09/05 00:40:48;;;;;;;3.00;1.87;;;;;;;17.79;74.14;98982.41;4917250;29;20322;-54
2022/09/05 00:43:19;;;;;;;2.23;1.83;;;;;;;17.76;74.84;98982.78;4922199;28;20331;-56
2022/09/05 00:45:50;;;;;;;3.30;2.10;;;;;;;17.77;74.72;98976.50;4919319;29;20231;-53
2022/09/05 00:48:25;;;;;;;2.33;2.00;;;;;;;17.73;75.18;98983.16;4920495;29;20300;-55
2022/09/05 00:51:22;;;;;;;3.10;1.90;;;;;;;17.74;74.58;98986.59;4919840;29;20564;-55
2022/09/05 00:54:02;;;;;;;4.40;2.30;;;;;;;17.66;75.62;98992.84;4917235;28;20815;-55
2022/09/05 00:56:57;;;;;;;2.87;1.93;;;;;;;17.55;75.75;98992.31;4918395;28;20711;-54
2022/09/05 00:59:44;;;;;;;2.60;1.90;;;;;;;17.54;75.75;98993.31;4917607;29;20314;-55
2022/09/05 01:02:23;;;;;;;3.27;2.03;;;;;;;17.49;75.87;98995.72;4917712;28;20239;-53
2022/09/05 01:04:59;;;;;;;5.90;2.10;;;;;;;17.45;76.41;98993.66;4916406;29;20311;-55
2022/09/05 01:07:42;;;;;;;5.93;2.20;;;;;;;17.41;75.83;98993.19;4917405;29;20637;-53
2022/09/05 01:10:19;;;;;;;2.43;2.13;;;;;;;17.40;76.67;98994.19;4920806;28;20220;-52
2022/09/05 01:12:58;;;;;;;3.37;2.00;;;;;;;17.41;76.26;98990.53;4913718;29;20255;-56
2022/09/05 01:15:32;;;;;;;4.03;2.10;;;;;;;17.42;77.87;98989.53;4917642;29;20314;-56
2022/09/05 01:18:12;;;;;;;3.40;2.03;;;;;;;17.42;78.21;98994.81;4918538;29;20241;-53
2022/09/05 01:20:51;;;;;;;2.67;2.13;;;;;;;17.34;78.28;98997.56;4918373;28;20237;-55
2022/09/05 01:23:46;;;;;;;4.00;2.00;;;;;;;17.31;78.28;98997.94;4919656;29;20234;-54
2022/09/05 01:26:43;;;;;;;2.70;1.97;;;;;;;17.30;78.55;98998.94;4914248;29;20237;-55
2022/09/05 01:29:18;;;;;;;3.50;2.10;;;;;;;17.26;78.67;99004.59;4909660;28;20239;-53
2022/09/05 01:32:02;;;;;;;4.47;2.27;;;;;;;17.30;79.57;98998.94;4916346;29;20237;-54
2022/09/05 01:34:40;;;;;;;2.77;2.13;;;;;;;17.28;80.70;99001.78;4916412;28;20222;-53
2022/09/05 01:37:16;;;;;;;2.73;2.20;;;;;;;17.25;80.41;99000.31;4920349;28;20631;-56
2022/09/05 01:40:14;;;;;;;3.80;2.33;;;;;;;17.24;80.34;99001.31;4917814;29;20391;-56
2022/09/05 01:42:48;;;;;;;4.07;2.17;;;;;;;17.23;80.32;99002.31;4915733;29;20257;-54
2022/09/05 01:45:23;;;;;;;2.73;2.20;;;;;;;17.27;78.98;98994.88;4920831;28;20227;-56
2022/09/05 01:48:00;;;;;;;3.57;2.27;;;;;;;17.25;79.28;98997.66;4918938;29;20230;-54
2022/09/05 01:50:41;;;;;;;3.53;2.17;;;;;;;17.27;78.53;98993.03;4916245;29;20233;-55
2022/09/05 01:53:33;;;;;;;2.70;2.00;;;;;;;17.21;79.23;98990.31;4918253;28;20246;-55
2022/09/05 01:56:20;;;;;;;3.30;2.50;;;;;;;17.18;78.91;98993.34;4917866;28;20773;-54
2022/09/05 01:58:57;;;;;;;2.70;2.30;;;;;;;17.15;79.69;98993.69;4915502;28;20305;-56
2022/09/05 02:01:36;;;;;;;2.97;2.37;;;;;;;17.11;79.59;98999.34;4914549;28;20243;-55
2022/09/05 02:04:30;;;;;;;5.70;2.50;;;;;;;17.07;80.49;98994.59;4920288;28;20222;-53
2022/09/05 02:07:03;;;;;;;2.57;2.20;;;;;;;17.03;80.46;98991.53;4917585;29;20232;-53
2022/09/05 02:09:41;;;;;;;2.33;2.10;;;;;;;16.99;80.74;98995.53;4917236;28;20236;-53
2022/09/05 02:12:22;;;;;;;4.90;2.50;;;;;;;16.92;80.87;98995.44;4918805;28;20228;-54
2022/09/05 02:14:57;;;;;;;3.80;2.23;;;;;;;16.90;80.73;99000.06;4917612;28;20746;-54
2022/09/05 02:17:30;;;;;;;2.87;2.30;;;;;;;16.85;81.17;99005.06;4915829;29;20245;-54
2022/09/05 02:20:11;;;;;;;3.20;2.40;;;;;;;16.79;81.78;99003.97;4918242;28;20775;-55
2022/09/05 02:22:43;;;;;;;2.83;2.10;;;;;;;16.73;82.91;98999.41;4916161;28;20325;-56
2022/09/05 02:25:18;;;;;;;3.33;2.30;;;;;;;16.71;83.52;99005.88;4918908;29;20691;-55
2022/09/05 02:27:50;;;;;;;2.70;2.30;;;;;;;16.70;83.68;99006.88;4917274;28;20251;-54
2022/09/05 02:30:20;;;;;;;3.93;2.27;;;;;;;16.66;83.88;99006.41;4918555;28;20225;-56
2022/09/05 02:32:57;;;;;;;2.33;2.13;;;;;;;16.65;84.14;99005.59;4917314;29;20232;-56
2022/09/05 02:35:30;;;;;;;2.50;2.23;;;;;;;16.58;84.10;98999.41;4917698;28;20243;-56
2022/09/05 02:38:04;;;;;;;3.13;2.43;;;;;;;16.56;84.60;98998.78;4919928;28;20235;-53
2022/09/05 02:40:39;;;;;;;2.20;2.00;;;;;;;16.49;84.85;98997.88;4915512;28;20341;-52
2022/09/05 02:43:15;;;;;;;3.03;2.63;;;;;;;16.47;85.77;99003.31;4917709;29;20309;-55
2022/09/05 02:45:53;;;;;;;2.77;2.33;;;;;;;16.52;86.32;98993.03;4915464;28;20297;-55
2022/09/05 02:48:26;;;;;;;4.50;2.50;;;;;;;16.51;86.02;99001.94;4915894;29;20649;-55
2022/09/05 02:51:04;;;;;;;4.47;2.30;;;;;;;16.50;86.57;99002.13;4919094;29;20235;-56
2022/09/05 02:53:34;;;;;;;4.30;2.20;;;;;;;16.45;86.51;98994.75;4915534;29;20223;-56
2022/09/05 02:56:23;;;;;;;2.80;2.50;;;;;;;16.41;86.09;98995.31;4918183;28;20233;-56
2022/09/05 02:59:02;;;;;;;4.40;2.23;;;;;;;16.36;86.64;98998.50;4918052;29;20263;-56
2022/09/05 03:01:51;;;;;;;2.53;2.33;;;;;;;16.32;86.79;98995.38;4914634;29;20252;-56
2022/09/05 03:04:30;;;;;;;3.20;2.27;;;;;;;16.31;86.44;98990.31;4916850;29;20247;-52
2022/09/05 03:07:33;;;;;;;2.53;2.33;;;;;;;16.29;86.08;98997.56;4915921;28;20312;-54
2022/09/05 03:10:24;;;;;;;3.60;2.53;;;;;;;16.22;86.55;98997.44;4915487;29;20231;-56
2022/09/05 03:13:18;;;;;;;3.67;2.87;;;;;;;16.22;87.01;98992.19;4916793;28;20239;-55
2022/09/05 03:16:14;;;;;;;4.43;2.20;;;;;;;16.11;86.61;98990.81;4913464;29;20236;-53
2022/09/05 03:19:07;;;;;;;6.13;2.40;;;;;;;16.07;87.15;98985.06;4915831;29;20239;-53
2022/09/05 03:22:22;;;;;;;2.50;2.13;;;;;;;16.09;86.46;98984.91;4914718;28;20246;-52
2022/09/05 03:25:13;;;;;;;3.53;2.50;;;;;;;16.07;86.29;98984.25;4915763;29;20248;-55
2022/09/05 03:28:19;;;;;;;4.90;2.40;;;;;;;16.03;86.58;98993.50;4916494;28;20242;-55
2022/09/05 03:31:08;;;;;;;3.33;2.50;;;;;;;15.93;86.25;98988.47;4914535;28;20262;-53
2022/09/05 03:33:58;;;;;;;5.10;2.60;;;;;;;15.88;87.01;98982.94;4913476;29;20234;-52
2022/09/05 03:36:52;;;;;;;2.90;2.20;;;;;;;15.84;88.72;98992.16;4914933;29;20238;-54
2022/09/05 03:39:46;;;;;;;3.03;2.43;;;;;;;15.81;88.58;98988.03;4923111;28;20239;-55
2022/09/05 03:42:35;;;;;;;3.27;2.70;;;;;;;15.78;88.96;98985.75;4919497;28;20599;-55
2022/09/05 03:45:28;;;;;;;2.73;2.53;;;;;;;15.74;88.90;98992.38;4920557;29;20240;-54
2022/09/05 03:48:17;;;;;;;3.07;2.73;;;;;;;15.70;88.81;98989.28;4920683;28;20249;-54
2022/09/05 03:50:58;;;;;;;2.97;2.53;;;;;;;15.66;88.88;98982.72;4919047;28;20234;-53
2022/09/05 03:53:46;;;;;;;4.03;2.43;;;;;;;15.62;89.48;98984.06;4917637;29;20254;-53
2022/09/05 03:56:37;;;;;;;5.43;2.83;;;;;;;15.60;89.57;98981.59;4920113;28;20573;-55
2022/09/05 03:59:37;;;;;;;3.90;2.73;;;;;;;15.53;89.30;98982.47;4918675;28;20327;-55
2022/09/05 04:02:07;;;;;;;3.73;2.77;;;;;;;15.54;89.65;98990.19;4912150;29;20247;-55
2022/09/05 04:04:38;;;;;;;4.40;2.90;;;;;;;15.53;90.34;98990.38;4917697;28;20238;-54
2022/09/05 04:07:09;;;;;;;4.67;2.80;;;;;;;15.46;89.95;98983.19;4921220;28;20230;-55
2022/09/05 04:09:39;;;;;;;3.07;2.70;;;;;;;15.44;90.21;98984.34;4919744;29;20242;-55
2022/09/05 04:12:16;;;;;;;4.70;2.90;;;;;;;15.38;90.39;98979.75;4921299;29;20322;-55
2022/09/05 04:14:48;;;;;;;4.90;2.60;;;;;;;15.37;91.12;98978.16;4915707;28;20227;-54
2022/09/05 04:17:24;;;;;;;3.47;2.80;;;;;;;15.32;91.48;98997.06;4919867;28;20239;-55
2022/09/05 04:19:56;;;;;;;2.63;2.43;;;;;;;15.28;91.65;98991.34;4919341;29;20626;-55
2022/09/05 04:22:34;;;;;;;4.53;2.83;;;;;;;15.27;91.28;98994.13;4918503;29;20600;-54
2022/09/05 04:25:08;;;;;;;3.17;2.80;;;;;;;15.24;92.10;98990.06;4921129;28;20232;-56
2022/09/05 04:27:41;;;;;;;4.43;2.73;;;;;;;15.19;91.73;99003.69;4917697;28;20250;-55
2022/09/05 04:30:25;;;;;;;5.27;2.57;;;;;;;15.19;92.34;99003.69;4920695;29;20612;-54
2022/09/05 04:32:59;;;;;;;4.60;3.20;;;;;;;15.20;92.71;99001.91;4918573;29;20251;-54
2022/09/05 04:35:55;;;;;;;3.77;3.03;;;;;;;15.15;92.90;99004.22;4920571;28;20781;-54
2022/09/05 04:38:37;;;;;;;3.80;3.10;;;;;;;15.14;92.79;99007.84;4919769;29;20230;-51
2022/09/05 04:41:09;;;;;;;5.43;3.20;;;;;;;15.19;93.35;99016.03;4922711;28;20245;-55
2022/09/05 04:43:39;;;;;;;4.47;3.10;;;;;;;15.16;93.86;99011.94;4916930;28;20696;-53
2022/09/05 04:46:18;;;;;;;5.57;3.13;;;;;;;15.14;92.88;99013.09;4921599;28;20240;-54
2022/09/05 04:48:52;;;;;;;5.57;3.40;;;;;;;15.08;93.33;99011.97;4916066;29;20709;-54
2022/09/05 04:51:44;;;;;;;3.60;3.30;;;;;;;15.06;94.01;99027.09;4921278;28;20242;-52
2022/09/05 04:54:28;;;;;;;4.10;3.33;;;;;;;15.08;94.16;99025.09;4918048;28;20255;-53
2022/09/05 04:57:03;;;;;;;4.47;3.23;;;;;;;15.09;94.79;99034.63;4916268;29;20233;-55
2022/09/05 04:59:36;;;;;;;4.43;3.20;;;;;;;15.13;94.84;99040.38;4915512;28;21021;-54
2022/09/05 05:02:17;;;;;;;3.87;3.47;;;;;;;15.11;94.42;99042.38;4920032;28;20249;-52
2022/09/05 05:04:43;;;;;;;4.10;3.00;;;;;;;15.10;94.20;99041.53;4917584;28;20324;-54
2022/09/05 05:07:20;;;;;;;5.67;3.23;;;;;;;15.14;94.78;99050.72;4920638;29;20238;-54
2022/09/05 05:09:51;;;;;;;3.60;3.30;;;;;;;15.17;94.43;99054.84;4916918;28;20237;-53
2022/09/05 05:12:23;;;;;;;6.07;3.70;;;;;;;15.19;93.95;99056.28;4919322;28;20323;-55
2022/09/05 05:14:53;;;;;;;3.57;3.10;;;;;;;15.20;93.46;99060.56;4917280;29;20310;-51
2022/09/05 05:17:30;;;;;;;3.37;3.07;;;;;;;15.20;93.53;99057.94;4919260;29;20718;-55
2022/09/05 05:20:08;;;;;;;4.57;3.33;;;;;;;15.18;93.85;99070.44;4919470;29;20244;-52
2022/09/05 05:22:37;;;;;;;4.57;3.07;;;;;;;15.25;94.01;99078.47;4917453;28;20256;-53
2022/09/05 05:25:10;;;;;;;5.07;3.27;;;;;;;15.25;93.78;99073.22;4921091;29;20240;-55
2022/09/05 05:27:44;;;;;;;3.30;2.80;;;;;;;15.23;93.84;99075.19;4915309;29;20243;-54
2022/09/05 05:30:12;;;;;;;3.63;2.93;;;;;;;15.23;93.84;99075.19;4920508;28;20237;-52
2022/09/05 05:32:46;;;;;;;6.37;3.27;;;;;;;15.26;93.82;99084.53;4916001;28;20234;-54
2022/09/05 05:35:18;;;;;;;5.33;3.30;;;;;;;15.28;94.17;99083.41;4920231;29;20246;-55
2022/09/05 05:37:48;;;;;;;2.93;2.63;;;;;;;15.26;94.00;99081.91;4918030;28;20223;-54
2022/09/05 05:40:21;;;;;;;3.57;3.13;;;;;;;15.25;93.53;99081.09;4919687;28;20245;-53
2022/09/05 05:42:48;;;;;;;3.03;2.70;;;;;;;15.26;94.21;99084.53;4916938;29;20239;-51
2022/09/05 05:45:18;;;;;;;5.03;3.47;;;;;;;15.26;95.17;99080.13;4919301;29;20248;-53
2022/09/05 05:47:51;;;;;;;4.30;3.60;;;;;;;15.28;95.20;99087.81;4917575;28;20249;-54
2022/09/05 05:50:33;;;;;;;4.60;3.30;;;;;;;15.31;94.79;99098.84;4923794;28;20250;-55
2022/09/05 05:53:20;;;;;;;5.00;3.27;;;;;;;15.29;94.45;99090.28;4917747;29;20230;-54
2022/09/05 05:56:22;;;;;;;3.77;3.10;;;;;;;15.31;94.65;99090.09;4918003;28;20321;-55
2022/09/05 05:59:21;;;;;;;4.33;3.20;;;;;;;15.35;94.42;99100.13;4915971;28;20238;-53
2022/09/05 06:02:16;;;;;;;3.13;2.80;;;;;;;15.40;94.76;99093.50;4902934;29;20242;-54
2022/09/05 06:05:16;;;;;;;4.80;2.80;;;;;;;15.43;94.35;99094.00;4919417;28;20467;-55
2022/09/05 06:07:53;;;;;;;3.57;3.27;;;;;;;15.42;94.75;99092.38;4903672;28;20234;-56
2022/09/05 06:10:45;;;;;;;4.60;3.20;;;;;;;15.45;94.05;99089.41;4918126;28;20249;-53
2022/09/05 06:13:43;;;;;;;4.20;3.20;;;;;;;15.51;95.07;99090.50;4915479;29;20602;-53
2022/09/05 06:16:42;;;;;;;3.93;3.10;;;;;;;15.57;95.18;99086.38;4917582;28;20239;-52
2022/09/05 06:19:40;;;;;;;5.23;3.10;;;;;;;15.63;94.44;99086.50;4916732;29;20681;-54
2022/09/05 06:22:27;;;;;;;3.20;2.90;;;;;;;15.66;94.79;99082.72;4917327;29;20718;-55
2022/09/05 06:25:44;;;;;;;3.73;3.33;;;;;;;15.73;94.62;99090.75;4918127;28;20252;-55
2022/09/05 06:28:25;;;;;;;4.67;3.30;;;;;;;15.81;94.28;99084.63;4914963;29;20349;-53
2022/09/05 06:31:11;;;;;;;4.83;3.17;;;;;;;15.86;94.42;99088.38;4917019;29;20234;-55
2022/09/05 06:33:59;;;;;;;5.73;2.80;;;;;;;15.94;94.07;99088.34;4916690;28;20239;-52
2022/09/05 06:36:47;;;;;;;5.83;3.07;;;;;;;16.02;94.48;99099.81;4915289;28;20625;-55
2022/09/05 06:39:25;;;;;;;5.47;2.80;;;;;;;16.04;93.93;99096.00;4919327;29;20326;-53
2022/09/05 06:42:14;;;;;;;3.90;3.10;;;;;;;16.15;93.50;99096.59;4915805;29;20246;-54
2022/09/05 06:44:54;;;;;;;5.47;3.10;;;;;;;16.20;92.76;99100.34;4914992;28;20239;-55
2022/09/05 06:47:22;;;;;;;4.97;2.73;;;;;;;16.28;92.21;99090.75;4915407;29;20234;-55
2022/09/05 06:50:04;;;;;;;4.10;3.33;;;;;;;16.39;91.47;99092.97;4918706;29;20243;-55
2022/09/05 06:53:07;;;;;;;4.20;3.30;;;;;;;16.49;90.37;99100.63;4912128;28;20236;-54
2022/09/05 06:55:48;;;;;;;3.13;2.83;;;;;;;16.64;89.23;99111.19;4887811;29;20269;-54
2022/09/05 06:58:44;;;;;;;3.97;3.40;;;;;;;16.85;86.58;99113.16;4916765;29;20330;-54
2022/09/05 07:01:14;;;;;;;3.07;2.83;;;;;;;17.04;85.58;99124.19;4914442;28;20403;-54
2022/09/05 07:03:58;;;;;;;5.27;3.23;;;;;;;17.21;85.11;99130.13;4917379;28;20632;-56
2022/09/05 07:06:35;;;;;;;5.50;3.57;;;;;;;17.34;84.43;99126.84;4916594;28;20232;-52
2022/09/05 07:09:27;;;;;;;5.10;3.10;;;;;;;17.50;81.48;99136.38;4913461;28;20370;-54
2022/09/05 07:12:07;;;;;;;5.47;3.90;;;;;;;17.75;81.91;99136.91;4917525;28;20243;-56
2022/09/05 07:14:41;;;;;;;5.17;3.97;;;;;;;17.91;80.35;99132.44;4917231;28;20249;-55
2022/09/05 07:17:14;;;;;;;5.57;3.93;;;;;;;18.09;80.02;99140.75;4916949;29;20286;-55
2022/09/05 07:19:50;;;;;;;6.87;3.53;;;;;;;18.20;79.76;99133.34;4913220;28;20242;-56
2022/09/05 07:22:34;;;;;;;4.17;3.37;;;;;;;18.28;79.79;99134.06;4916959;28;20237;-56
2022/09/05 07:25:07;;;;;;;4.33;3.50;;;;;;;18.37;78.96;99131.28;4914198;29;20222;-55
2022/09/05 07:27:42;;;;;;;7.00;3.43;;;;;;;18.46;78.11;99134.63;4916089;29;20614;-53
2022/09/05 07:30:12;;;;;;;3.17;2.87;;;;;;;18.54;78.29;99137.97;4918382;28;22000;-51
2022/09/05 07:32:43;;;;;;;4.63;3.17;;;;;;;18.61;77.52;99138.00;4914770;28;20235;-52
2022/09/05 07:35:18;;;;;;;4.57;2.97;;;;;;;18.71;77.25;99135.03;4918524;28;20230;-54
2022/09/05 07:37:49;;;;;;;4.60;3.20;;;;;;;18.83;77.33;99137.97;4915061;28;20238;-55
2022/09/05 07:40:20;;;;;;;3.53;3.00;;;;;;;18.94;76.75;99131.31;4917771;29;20871;-55
2022/09/05 07:42:55;;;;;;;4.70;3.80;;;;;;;19.03;75.12;99136.31;4915513;29;20251;-52
2022/09/05 07:45:26;;;;;;;3.80;3.50;;;;;;;19.10;73.28;99138.16;4914694;29;20227;-54
2022/09/05 07:47:58;;;;;;;4.50;3.10;;;;;;;19.20;73.09;99138.66;4918766;28;20682;-54
2022/09/05 07:50:28;;;;;;;4.10;3.40;;;;;;;19.22;72.71;99139.28;4915338;28;20223;-52
2022/09/05 07:52:58;;;;;;;4.97;3.03;;;;;;;19.32;73.00;99136.28;4916575;29;20257;-56
2022/09/05 07:55:29;;;;;;;5.03;3.50;;;;;;;19.41;72.48;99137.75;4916983;28;20231;-52
2022/09/05 07:58:02;;;;;;;5.50;3.80;;;;;;;19.58;71.38;99140.09;4918329;28;20236;-54
2022/09/05 08:00:30;;;;;;;6.20;4.23;;;;;;;19.58;70.86;99143.53;4914590;29;20587;-54
2022/09/05 08:03:00;;;;;;;8.87;4.50;;;;;;;19.66;71.50;99139.88;4917862;29;20282;-55
2022/09/05 08:05:35;;;;;;;7.60;5.17;;;;;;;19.68;71.86;99151.09;4917148;28;20299;-56
2022/09/05 08:08:07;;;;;;;5.43;4.50;;;;;;;19.72;72.01;99147.03;4918606;29;20249;-52
2022/09/05 08:10:40;;;;;;;5.93;4.20;;;;;;;19.73;71.92;99158.47;4914669;29;20327;-55
2022/09/05 08:13:12;;;;;;;4.60;4.10;;;;;;;19.71;72.42;99148.06;4918803;28;20255;-54
2022/09/05 08:15:45;;;;;;;4.80;3.87;;;;;;;19.79;72.43;99155.03;4914654;28;20757;-52
2022/09/05 08:18:16;;;;;;;6.40;4.70;;;;;;;19.91;71.49;99164.06;4919771;28;20713;-53
2022/09/05 08:20:47;;;;;;;13.03;4.43;;;;;;;19.90;71.40;99162.44;4913992;29;20623;-55
2022/09/05 08:23:39;;;;;;;5.60;4.47;;;;;;;19.98;70.78;99165.94;4919472;29;20277;-55
2022/09/05 08:26:12;;;;;;;6.93;4.37;;;;;;;20.01;70.67;99169.00;4919040;29;20242;-54
2022/09/05 08:28:54;;;;;;;6.87;4.07;;;;;;;20.01;70.98;99169.00;4918801;28;20646;-53
2022/09/05 08:31:27;;;;;;;7.00;3.60;;;;;;;20.09;70.64;99170.66;4916721;28;20243;-54
2022/09/05 08:34:00;;;;;;;7.77;4.23;;;;;;;20.21;69.34;99168.22;4921957;28;20236;-54
2022/09/05 08:36:31;;;;;;;4.37;3.97;;;;;;;20.29;68.51;99169.88;4917690;29;20266;-54
2022/09/05 08:39:01;;;;;;;4.40;3.93;;;;;;;20.34;68.61;99172.72;4922104;29;20247;-52
2022/09/05 08:41:33;;;;;;;8.03;4.00;;;;;;;20.37;68.23;99169.69;4917703;28;20705;-52
2022/09/05 08:44:10;;;;;;;5.77;3.70;;;;;;;20.49;67.65;99173.38;4935844;29;20232;-52
2022/09/05 08:46:48;;;;;;;5.30;4.23;;;;;;;20.59;67.05;99177.47;4918277;29;20262;-52
2022/09/05 08:49:46;;;;;;;6.17;3.70;;;;;;;20.67;67.69;99177.25;4919977;28;20233;-52
2022/09/05 08:52:26;;;;;;;4.07;3.60;;;;;;;20.82;67.48;99178.94;4913683;28;20587;-55
2022/09/05 08:55:05;;;;;;;4.53;3.50;;;;;;;20.91;67.31;99178.50;4918518;29;20337;-52
2022/09/05 08:57:57;;;;;;;4.13;3.57;;;;;;;21.00;66.63;99178.31;4916826;28;20295;-55
2022/09/05 09:00:51;;;;;;;5.73;3.70;;;;;;;21.05;65.81;99179.34;4918746;28;20243;-56
2022/09/05 09:03:24;;;;;;;4.60;3.40;;;;;;;21.15;65.28;99178.91;4919745;29;20683;-55
2022/09/05 09:06:27;;;;;;;6.87;3.83;;;;;;;21.29;65.39;99178.88;4917109;28;20329;-54
2022/09/05 09:09:08;;;;;;;5.10;3.93;;;;;;;21.36;65.09;99179.69;4893910;28;20243;-54
2022/09/05 09:11:38;;;;;;;5.23;3.83;;;;;;;21.54;64.91;99173.72;4916698;29;20239;-55
2022/09/05 09:14:32;;;;;;;5.60;4.33;;;;;;;21.59;64.57;99173.91;4922191;29;20246;-53
2022/09/05 09:17:08;;;;;;;5.63;3.53;;;;;;;21.66;64.23;99174.72;4917393;29;20567;-54
2022/09/05 09:19:46;;;;;;;5.27;3.30;;;;;;;21.77;63.12;99169.78;4916073;28;20230;-53
2022/09/05 09:22:23;;;;;;;6.70;3.60;;;;;;;21.88;63.46;99168.28;4918348;29;20239;-54
2022/09/05 09:24:59;;;;;;;7.23;3.90;;;;;;;21.78;62.86;99163.44;4918486;29;20256;-55
2022/09/05 09:27:34;;;;;;;8.73;3.60;;;;;;;21.88;62.57;99155.00;4917126;28;20321;-54
2022/09/05 09:30:05;;;;;;;3.23;2.93;;;;;;;22.00;61.84;99152.50;4921789;29;20563;-54
2022/09/05 09:32:43;;;;;;;5.30;3.20;;;;;;;22.06;61.63;99143.69;4914821;28;20241;-53
2022/09/05 09:35:20;;;;;;;5.17;3.43;;;;;;;22.18;61.43;99135.81;4918228;28;20257;-53
2022/09/05 09:38:13;;;;;;;7.80;3.70;;;;;;;22.24;60.64;99133.13;4917796;29;20247;-56
2022/09/05 09:41:21;;;;;;;5.97;3.40;;;;;;;22.41;60.54;99136.06;4908127;28;20221;-56
2022/09/05 09:44:09;;;;;;;3.87;3.17;;;;;;;22.44;59.95;99126.88;4911247;28;20240;-55
2022/09/05 09:46:42;;;;;;;3.23;2.90;;;;;;;22.50;60.67;99130.53;4915410;28;20899;-56
2022/09/05 09:49:28;;;;;;;4.13;3.33;;;;;;;22.54;59.99;99126.41;4919703;28;20236;-55
2022/09/05 09:52:23;;;;;;;5.47;3.00;;;;;;;22.67;58.87;99139.59;4915991;28;20246;-58
2022/09/05 09:55:39;;;;;;;4.80;3.47;;;;;;;22.69;59.55;99139.38;4915744;29;20240;-56
2022/09/05 09:59:00;;;;;;;4.13;3.20;;;;;;;22.83;59.08;99138.22;4904996;29;20282;-56
2022/09/05 10:01:40;;;;;;;7.40;3.57;;;;;;;23.02;58.67;99124.13;4860239;29;20234;-54
2022/09/05 10:04:21;;;;;;;4.60;3.67;;;;;;;23.12;58.60;99127.91;4906985;28;20239;-56
2022/09/05 10:07:18;;;;;;;6.13;3.50;;;;;;;23.39;57.64;99130.28;4911298;29;20244;-57
2022/09/05 10:10:06;;;;;;;3.70;3.10;;;;;;;23.55;56.60;99120.06;4915438;29;20236;-54
2022/09/05 10:13:13;;;;;;;4.57;3.27;;;;;;;23.61;56.54;99110.38;4918039;28;20242;-57
2022/09/05 10:15:58;;;;;;;4.07;2.90;;;;;;;23.65;55.87;99112.38;4916803;29;20234;-57
2022/09/05 10:18:40;;;;;;;7.10;3.33;;;;;;;23.78;54.64;99115.91;4918796;28;20264;-53
2022/09/05 10:21:35;;;;;;;5.03;3.00;;;;;;;23.88;54.99;99105.50;4916055;28;20236;-55
2022/09/05 10:24:24;;;;;;;6.37;3.20;;;;;;;24.00;53.74;99105.56;4915541;28;20250;-53
2022/09/05 10:27:20;;;;;;;3.17;2.50;;;;;;;24.13;54.24;99112.56;4915959;28;20246;-56
2022/09/05 10:30:05;;;;;;;4.53;2.83;;;;;;;24.14;53.85;99106.19;4917286;28;20239;-56
2022/09/05 10:32:40;;;;;;;3.70;3.07;;;;;;;24.11;54.31;99110.13;4914492;28;20220;-56
2022/09/05 10:35:17;;;;;;;3.00;2.70;;;;;;;24.14;53.87;99103.53;4918715;29;20253;-56
2022/09/05 10:37:49;;;;;;;3.97;2.80;;;;;;;24.24;53.56;99105.63;4916764;28;20355;-57
2022/09/05 10:40:21;;;;;;;6.93;2.87;;;;;;;24.28;53.32;99106.81;4921046;29;20669;-56
2022/09/05 10:42:51;;;;;;;3.07;2.40;;;;;;;24.40;52.98;99107.63;4915617;29;20250;-56
2022/09/05 10:45:27;;;;;;;4.43;2.70;;;;;;;24.54;52.89;99110.88;4919944;29;20255;-56
2022/09/05 10:48:02;;;;;;;3.87;2.90;;;;;;;24.72;53.62;99107.34;4914397;28;20316;-55
2022/09/05 10:50:32;;;;;;;5.60;2.83;;;;;;;24.64;51.23;99112.19;4917409;29;20298;-57
2022/09/05 10:53:27;;;;;;;4.93;2.70;;;;;;;24.72;50.30;99106.50;4918426;29;20237;-56
2022/09/05 10:56:17;;;;;;;2.70;2.30;;;;;;;24.79;49.90;99099.22;4915169;28;20267;-53
2022/09/05 10:58:58;;;;;;;3.87;2.67;;;;;;;24.91;49.59;99108.03;4914517;29;20588;-57
2022/09/05 11:01:33;;;;;;;3.83;2.37;;;;;;;25.02;48.41;99100.25;4915750;29;20324;-54
2022/09/05 11:04:16;;;;;;;3.23;2.50;;;;;;;25.06;49.41;99090.72;4918106;28;20705;-56
2022/09/05 11:06:54;;;;;;;4.40;2.87;;;;;;;25.08;48.89;99091.28;4916986;29;20228;-56
2022/09/05 11:09:50;;;;;;;4.57;2.57;;;;;;;25.14;48.59;99085.00;4917694;29;20251;-55
2022/09/05 11:12:49;;;;;;;3.80;2.70;;;;;;;25.23;47.93;99082.78;4912931;28;20837;-56
2022/09/05 11:15:26;;;;;;;5.03;2.60;;;;;;;25.29;48.23;99089.06;4912675;28;20549;-54
2022/09/05 11:18:00;;;;;;;5.10;2.73;;;;;;;25.28;47.97;99085.56;4914255;28;20240;-56
2022/09/05 11:20:57;;;;;;;7.07;2.73;;;;;;;25.33;49.37;99090.19;4911963;28;20865;-52
2022/09/05 11:23:31;;;;;;;3.30;2.70;;;;;;;25.27;49.12;99083.13;4913681;28;20261;-55
2022/09/05 11:26:06;;;;;;;4.80;2.90;;;;;;;25.34;48.99;99081.94;4918861;29;20252;-55
2022/09/05 11:28:41;;;;;;;4.93;2.97;;;;;;;25.46;48.05;99078.44;4914055;28;20266;-56
2022/09/05 11:31:15;;;;;;;5.30;3.10;;;;;;;25.53;48.31;99071.09;4917853;29;21301;-56
2022/09/05 11:33:58;;;;;;;3.70;2.77;;;;;;;25.52;48.15;99074.81;4912571;28;20234;-55
2022/09/05 11:36:29;;;;;;;4.70;3.03;;;;;;;25.53;48.09;99067.59;4917504;29;20861;-53
2022/09/05 11:39:44;;;;;;;3.07;2.63;;;;;;;25.65;47.77;99073.72;4917779;28;20248;-56
2022/09/05 11:42:40;;;;;;;6.07;3.10;;;;;;;25.60;48.17;99065.59;4913633;29;20238;-56
2022/09/05 11:45:39;;;;;;;3.70;3.03;;;;;;;25.70;47.63;99054.31;4914020;28;20246;-53
2022/09/05 11:49:00;;;;;;;4.60;2.95;;;;;;;25.86;47.37;99048.19;4912446;28;20452;-53
2022/09/05 11:52:05;;;;;;;6.77;2.83;;;;;;;25.85;46.26;99041.19;4851415;29;20647;-57
2022/09/05 11:55:26;;;;;;;4.43;2.43;;;;;;;26.05;47.69;99039.91;4855492;29;20344;-56
2022/09/05 11:58:16;;;;;;;7.07;2.83;;;;;;;26.19;45.61;99035.09;4858192;29;20239;-56
2022/09/05 12:00:50;;;;;;;5.93;2.30;;;;;;;26.08;45.70;99031.38;4918164;29;20238;-55
2022/09/05 12:03:41;;;;;;;2.90;2.57;;;;;;;26.14;45.38;99027.78;4920636;28;20245;-56
2022/09/05 12:06:24;;;;;;;3.43;2.40;;;;;;;26.20;46.04;99013.41;4919074;29;20261;-57
2022/09/05 12:08:55;;;;;;;4.57;2.30;;;;;;;26.25;43.83;99018.06;4919401;29;20242;-56
2022/09/05 12:11:39;;;;;;;3.93;2.50;;;;;;;26.43;43.92;99008.16;4919339;28;20247;-55
2022/09/05 12:14:27;;;;;;;4.37;2.23;;;;;;;26.59;43.16;99007.28;4918995;28;20264;-56
2022/09/05 12:17:03;;;;;;;4.47;2.33;;;;;;;26.69;43.21;99001.25;4919467;28;20254;-56
2022/09/05 12:19:33;;;;;;;6.37;2.40;;;;;;;26.81;42.68;99004.63;4918330;29;20241;-56
2022/09/05 12:22:24;;;;;;;3.17;2.43;;;;;;;26.92;41.15;99005.59;4920335;29;20721;-56
2022/09/05 12:25:17;;;;;;;2.50;2.10;;;;;;;26.96;41.41;98995.19;4916528;28;20244;-60
2022/09/05 12:27:47;;;;;;;6.47;2.53;;;;;;;27.01;40.77;98986.41;4917761;29;20284;-60
2022/09/05 12:30:23;;;;;;;3.63;1.80;;;;;;;27.17;37.79;98987.38;4920112;29;20288;-51
2022/09/05 12:32:51;;;;;;;2.30;2.10;;;;;;;27.32;40.28;98987.53;4914591;28;20274;-57
2022/09/05 12:35:30;;;;;;;8.37;3.00;;;;;;;27.40;42.00;98995.13;4921594;28;20234;-60
2022/09/05 12:38:08;;;;;;;4.07;2.40;;;;;;;27.32;41.94;98989.41;4917296;29;20239;-55
2022/09/05 12:40:38;;;;;;;2.30;2.10;;;;;;;27.34;40.99;98980.03;4916175;28;20814;-55